createdAt,value
2024-03-03T21:00:29.212Z,102666.22
2024-03-03T21:02:58.874Z,102671.59
2024-03-03T21:05:26.727Z,102665.38
2024-03-03T21:07:54.386Z,102668.75
2024-03-03T21:10:23.239Z,102665.22
2024-03-03T21:12:51.055Z,102674.34
2024-03-03T21:15:21.310Z,102667.28
2024-03-03T21:17:49.679Z,102668.50
2024-03-03T21:20:17.193Z,102665.59
2024-03-03T21:22:44.700Z,102661.69
2024-03-03T21:25:14.896Z,102660.59
2024-03-03T21:27:42.707Z,102663.03
2024-03-03T21:30:11.024Z,102666.22
2024-03-03T21:32:38.580Z,102658.38
2024-03-03T21:35:06.520Z,102668.13
2024-03-03T21:37:34.086Z,102656.84
2024-03-03T21:40:01.915Z,102669.09
2024-03-03T21:42:30.067Z,102663.28
2024-03-03T21:44:57.558Z,102662.88
2024-03-03T21:47:26.479Z,102667.19
2024-03-03T21:49:53.930Z,102662.09
2024-03-03T21:52:21.701Z,102645.91
2024-03-03T21:54:49.832Z,102654.53
2024-03-03T21:57:17.304Z,102637.50
2024-03-03T21:59:44.846Z,102663.13
2024-03-03T22:02:12.491Z,102654.94
2024-03-03T22:04:40.298Z,102654.22
2024-03-03T22:07:09.282Z,102653.66
2024-03-03T22:09:36.817Z,102656.13
2024-03-03T22:12:04.568Z,102657.53
2024-03-03T22:14:32.001Z,102647.94
2024-03-03T22:16:59.647Z,102642.44
2024-03-03T22:19:27.840Z,102637.09
2024-03-03T22:21:55.544Z,102651.59
2024-03-03T22:24:23.309Z,102650.25
2024-03-03T22:26:50.743Z,102649.28
2024-03-03T22:29:19.068Z,102638.06
2024-03-03T22:31:46.600Z,102643.03
2024-03-03T22:34:14.290Z,102635.78
2024-03-03T22:36:41.806Z,102634.81
2024-03-03T22:39:09.458Z,102629.63
2024-03-03T22:41:36.889Z,102633.81
2024-03-03T22:44:05.744Z,102635.00
2024-03-03T22:46:34.496Z,102638.63
2024-03-03T22:49:02.537Z,102635.59
2024-03-03T22:51:30.795Z,102640.06
2024-03-03T22:53:58.400Z,102619.78
2024-03-03T22:56:26.057Z,102632.47
2024-03-03T22:58:53.927Z,102646.06
2024-03-03T23:01:21.498Z,102637.84
2024-03-03T23:03:49.090Z,102638.19
2024-03-03T23:06:16.486Z,102642.28
2024-03-03T23:08:43.959Z,102633.09
2024-03-03T23:11:12.015Z,102638.44
2024-03-03T23:13:39.896Z,102640.00
2024-03-03T23:16:08.079Z,102641.25
2024-03-03T23:18:35.454Z,102646.31
2024-03-03T23:21:03.009Z,102645.91
2024-03-03T23:23:30.959Z,102644.72
2024-03-03T23:25:58.373Z,102635.38
2024-03-03T23:28:26.924Z,102643.94
2024-03-03T23:30:54.580Z,102632.41
2024-03-03T23:33:21.964Z,102622.38
2024-03-03T23:35:49.335Z,102639.63
2024-03-03T23:38:17.112Z,102632.66
2024-03-03T23:40:44.728Z,102635.69
2024-03-03T23:43:12.739Z,102633.34
2024-03-03T23:45:40.272Z,102622.97
2024-03-03T23:48:08.075Z,102628.16
2024-03-03T23:50:35.539Z,102635.75
2024-03-03T23:53:03.180Z,102635.75
2024-03-03T23:55:30.520Z,102628.06
2024-03-03T23:57:58.058Z,102629.84
